sensor_id;sensor_type;location;lat;lon;timestamp;P1;durP1;ratioP1;P2;durP2;ratioP2
13868;SDS011;7004;48.206;16.402;2023-03-05T00:01:18;25.73;;;17.03;;
13868;SDS011;7004;48.206;16.402;2023-03-05T00:03:48;24.50;;;15.63;;
13868;SDS011;7004;48.206;16.402;2023-03-05T00:06:17;26.50;;;16.07;;
13868;SDS011;7004;48.206;16.402;2023-03-05T00:08:44;25.57;;;16.53;;
13868;SDS011;7004;48.206;16.402;2023-03-05T00:11:12;26.30;;;16.10;;
13868;SDS011;7004;48.206;16.402;2023-03-05T00:13:40;24.50;;;16.23;;
13868;SDS011;7004;48.206;16.402;2023-03-05T00:16:10;27.57;;;16.10;;
13868;SDS011;7004;48.206;16.402;2023-03-05T00:18:40;26.50;;;16.27;;
13868;SDS011;7004;48.206;16.402;2023-03-05T00:24:03;25.70;;;15.60;;
13868;SDS011;7004;48.206;16.402;2023-03-05T00:26:34;26.87;;;15.80;;
13868;SDS011;7004;48.206;16.402;2023-03-05T00:29:03;26.63;;;16.23;;
13868;SDS011;7004;48.206;16.402;2023-03-05T00:31:34;23.07;;;15.80;;
13868;SDS011;7004;48.206;16.402;2023-03-05T00:34:03;26.80;;;16.23;;
13868;SDS011;7004;48.206;16.402;2023-03-05T00:36:33;22.67;;;15.63;;
13868;SDS011;7004;48.206;16.402;2023-03-05T00:39:04;26.53;;;16.77;;
13868;SDS011;7004;48.206;16.402;2023-03-05T00:41:32;24.63;;;15.77;;
13868;SDS011;7004;48.206;16.402;2023-03-05T00:43:59;25.17;;;16.00;;
13868;SDS011;7004;48.206;16.402;2023-03-05T00:46:26;23.93;;;16.03;;
13868;SDS011;7004;48.206;16.402;2023-03-05T00:48:56;24.17;;;16.13;;
13868;SDS011;7004;48.206;16.402;2023-03-05T00:51:23;23.80;;;15.33;;
13868;SDS011;7004;48.206;16.402;2023-03-05T00:53:50;26.37;;;16.57;;
13868;SDS011;7004;48.206;16.402;2023-03-05T00:56:16;27.17;;;16.43;;
13868;SDS011;7004;48.206;16.402;2023-03-05T00:58:43;25.03;;;16.43;;
13868;SDS011;7004;48.206;16.402;2023-03-05T01:01:10;24.63;;;15.97;;
13868;SDS011;7004;48.206;16.402;2023-03-05T01:03:38;25.67;;;15.33;;
13868;SDS011;7004;48.206;16.402;2023-03-05T01:06:06;23.40;;;15.13;;
13868;SDS011;7004;48.206;16.402;2023-03-05T01:08:37;25.97;;;15.23;;
13868;SDS011;7004;48.206;16.402;2023-03-05T01:11:06;25.07;;;15.07;;
13868;SDS011;7004;48.206;16.402;2023-03-05T01:13:34;23.77;;;15.30;;
13868;SDS011;7004;48.206;16.402;2023-03-05T01:16:02;23.50;;;14.90;;
13868;SDS011;7004;48.206;16.402;2023-03-05T01:18:31;21.43;;;14.47;;
13868;SDS011;7004;48.206;16.402;2023-03-05T01:20:59;23.53;;;14.90;;
13868;SDS011;7004;48.206;16.402;2023-03-05T01:23:26;22.50;;;14.83;;
13868;SDS011;7004;48.206;16.402;2023-03-05T01:25:54;21.13;;;14.40;;
13868;SDS011;7004;48.206;16.402;2023-03-05T01:28:24;22.40;;;14.70;;
13868;SDS011;7004;48.206;16.402;2023-03-05T01:30:52;23.20;;;14.67;;
13868;SDS011;7004;48.206;16.402;2023-03-05T01:33:19;23.77;;;14.37;;
13868;SDS011;7004;48.206;16.402;2023-03-05T01:35:46;22.03;;;14.30;;
13868;SDS011;7004;48.206;16.402;2023-03-05T01:38:14;25.10;;;15.20;;
13868;SDS011;7004;48.206;16.402;2023-03-05T01:40:42;22.47;;;15.07;;
13868;SDS011;7004;48.206;16.402;2023-03-05T01:45:35;26.33;;;15.50;;
13868;SDS011;7004;48.206;16.402;2023-03-05T01:48:03;23.97;;;14.13;;
13868;SDS011;7004;48.206;16.402;2023-03-05T01:50:30;24.10;;;14.53;;
13868;SDS011;7004;48.206;16.402;2023-03-05T01:53:01;23.73;;;14.17;;
13868;SDS011;7004;48.206;16.402;2023-03-05T01:55:31;23.40;;;13.47;;
13868;SDS011;7004;48.206;16.402;2023-03-05T01:58:03;21.27;;;14.50;;
13868;SDS011;7004;48.206;16.402;2023-03-05T02:00:37;21.20;;;13.70;;
13868;SDS011;7004;48.206;16.402;2023-03-05T02:03:24;21.20;;;13.90;;
13868;SDS011;7004;48.206;16.402;2023-03-05T02:05:53;23.27;;;14.30;;
13868;SDS011;7004;48.206;16.402;2023-03-05T02:08:21;25.47;;;15.10;;
13868;SDS011;7004;48.206;16.402;2023-03-05T02:10:50;21.60;;;14.47;;
13868;SDS011;7004;48.206;16.402;2023-03-05T02:13:22;24.83;;;15.00;;
13868;SDS011;7004;48.206;16.402;2023-03-05T02:15:57;22.17;;;15.13;;
13868;SDS011;7004;48.206;16.402;2023-03-05T02:18:26;25.33;;;14.73;;
13868;SDS011;7004;48.206;16.402;2023-03-05T02:23:23;24.57;;;14.73;;
13868;SDS011;7004;48.206;16.402;2023-03-05T02:25:58;22.13;;;13.87;;
13868;SDS011;7004;48.206;16.402;2023-03-05T02:28:27;22.33;;;14.40;;
13868;SDS011;7004;48.206;16.402;2023-03-05T02:31:01;23.30;;;14.80;;
13868;SDS011;7004;48.206;16.402;2023-03-05T02:33:38;25.00;;;15.00;;
13868;SDS011;7004;48.206;16.402;2023-03-05T02:36:06;21.83;;;14.27;;
13868;SDS011;7004;48.206;16.402;2023-03-05T02:38:33;23.27;;;14.67;;
13868;SDS011;7004;48.206;16.402;2023-03-05T02:41:00;22.47;;;13.67;;
13868;SDS011;7004;48.206;16.402;2023-03-05T02:43:27;25.00;;;15.70;;
13868;SDS011;7004;48.206;16.402;2023-03-05T02:45:53;23.70;;;15.17;;
13868;SDS011;7004;48.206;16.402;2023-03-05T02:48:20;22.77;;;14.43;;
13868;SDS011;7004;48.206;16.402;2023-03-05T02:50:46;22.50;;;14.93;;
13868;SDS011;7004;48.206;16.402;2023-03-05T02:53:13;26.10;;;15.17;;
13868;SDS011;7004;48.206;16.402;2023-03-05T02:55:40;21.67;;;14.20;;
13868;SDS011;7004;48.206;16.402;2023-03-05T02:58:07;25.30;;;15.17;;
13868;SDS011;7004;48.206;16.402;2023-03-05T03:00:34;25.27;;;15.53;;
13868;SDS011;7004;48.206;16.402;2023-03-05T03:03:01;23.53;;;15.00;;
13868;SDS011;7004;48.206;16.402;2023-03-05T03:05:28;22.23;;;15.33;;
13868;SDS011;7004;48.206;16.402;2023-03-05T03:07:55;23.90;;;15.00;;
13868;SDS011;7004;48.206;16.402;2023-03-05T03:10:22;22.77;;;14.43;;
13868;SDS011;7004;48.206;16.402;2023-03-05T03:12:54;22.40;;;15.33;;
13868;SDS011;7004;48.206;16.402;2023-03-05T03:15:21;22.67;;;15.47;;
13868;SDS011;7004;48.206;16.402;2023-03-05T03:17:49;23.63;;;15.33;;
13868;SDS011;7004;48.206;16.402;2023-03-05T03:20:17;23.67;;;15.23;;
13868;SDS011;7004;48.206;16.402;2023-03-05T03:22:45;25.43;;;14.73;;
13868;SDS011;7004;48.206;16.402;2023-03-05T03:25:17;23.13;;;15.13;;
13868;SDS011;7004;48.206;16.402;2023-03-05T03:27:46;21.80;;;14.90;;
13868;SDS011;7004;48.206;16.402;2023-03-05T03:30:12;23.67;;;14.90;;
13868;SDS011;7004;48.206;16.402;2023-03-05T03:32:40;23.67;;;15.23;;
13868;SDS011;7004;48.206;16.402;2023-03-05T03:35:06;21.37;;;14.47;;
13868;SDS011;7004;48.206;16.402;2023-03-05T03:37:36;22.73;;;15.33;;
13868;SDS011;7004;48.206;16.402;2023-03-05T03:40:03;23.60;;;15.30;;
13868;SDS011;7004;48.206;16.402;2023-03-05T03:42:31;22.63;;;15.87;;
13868;SDS011;7004;48.206;16.402;2023-03-05T03:44:58;22.63;;;14.27;;
13868;SDS011;7004;48.206;16.402;2023-03-05T03:47:27;24.37;;;15.53;;
13868;SDS011;7004;48.206;16.402;2023-03-05T03:49:55;22.13;;;14.70;;
13868;SDS011;7004;48.206;16.402;2023-03-05T03:52:21;19.00;;;14.37;;
13868;SDS011;7004;48.206;16.402;2023-03-05T03:54:48;24.10;;;14.73;;
13868;SDS011;7004;48.206;16.402;2023-03-05T03:57:17;21.60;;;14.80;;
13868;SDS011;7004;48.206;16.402;2023-03-05T03:59:44;22.47;;;15.07;;
13868;SDS011;7004;48.206;16.402;2023-03-05T04:02:10;24.23;;;15.13;;
13868;SDS011;7004;48.206;16.402;2023-03-05T04:04:37;22.13;;;14.53;;
13868;SDS011;7004;48.206;16.402;2023-03-05T04:07:03;25.53;;;15.57;;
13868;SDS011;7004;48.206;16.402;2023-03-05T04:09:30;22.50;;;14.60;;
13868;SDS011;7004;48.206;16.402;2023-03-05T04:11:56;22.43;;;14.60;;
13868;SDS011;7004;48.206;16.402;2023-03-05T04:14:23;22.67;;;15.80;;
13868;SDS011;7004;48.206;16.402;2023-03-05T04:16:51;22.00;;;14.60;;
13868;SDS011;7004;48.206;16.402;2023-03-05T04:19:17;24.03;;;15.17;;
13868;SDS011;7004;48.206;16.402;2023-03-05T04:21:44;21.57;;;14.47;;
13868;SDS011;7004;48.206;16.402;2023-03-05T04:24:11;21.83;;;14.93;;
13868;SDS011;7004;48.206;16.402;2023-03-05T04:26:38;20.27;;;14.00;;
13868;SDS011;7004;48.206;16.402;2023-03-05T04:29:05;24.20;;;15.03;;
13868;SDS011;7004;48.206;16.402;2023-03-05T04:31:31;22.73;;;15.53;;
13868;SDS011;7004;48.206;16.402;2023-03-05T04:33:59;21.83;;;14.73;;
13868;SDS011;7004;48.206;16.402;2023-03-05T04:36:26;21.73;;;13.63;;
13868;SDS011;7004;48.206;16.402;2023-03-05T04:38:52;23.07;;;15.33;;
13868;SDS011;7004;48.206;16.402;2023-03-05T04:41:19;22.17;;;14.97;;
13868;SDS011;7004;48.206;16.402;2023-03-05T04:43:45;23.43;;;15.47;;
13868;SDS011;7004;48.206;16.402;2023-03-05T04:46:12;22.57;;;14.97;;
13868;SDS011;7004;48.206;16.402;2023-03-05T04:48:38;23.47;;;15.37;;
13868;SDS011;7004;48.206;16.402;2023-03-05T04:51:06;24.27;;;14.10;;
13868;SDS011;7004;48.206;16.402;2023-03-05T04:53:32;21.83;;;14.50;;
13868;SDS011;7004;48.206;16.402;2023-03-05T04:55:58;24.30;;;15.90;;
13868;SDS011;7004;48.206;16.402;2023-03-05T04:58:27;22.70;;;15.10;;
13868;SDS011;7004;48.206;16.402;2023-03-05T05:00:59;24.13;;;15.23;;
13868;SDS011;7004;48.206;16.402;2023-03-05T05:03:30;21.73;;;15.00;;
13868;SDS011;7004;48.206;16.402;2023-03-05T05:05:58;24.53;;;15.30;;
13868;SDS011;7004;48.206;16.402;2023-03-05T05:08:26;22.27;;;14.50;;
13868;SDS011;7004;48.206;16.402;2023-03-05T05:11:04;23.50;;;15.80;;
13868;SDS011;7004;48.206;16.402;2023-03-05T05:13:32;22.47;;;15.43;;
13868;SDS011;7004;48.206;16.402;2023-03-05T05:16:00;23.17;;;15.87;;
13868;SDS011;7004;48.206;16.402;2023-03-05T05:18:30;23.27;;;15.73;;
13868;SDS011;7004;48.206;16.402;2023-03-05T05:20:56;23.80;;;15.17;;
13868;SDS011;7004;48.206;16.402;2023-03-05T05:23:24;24.20;;;16.07;;
13868;SDS011;7004;48.206;16.402;2023-03-05T05:25:55;23.13;;;15.20;;
13868;SDS011;7004;48.206;16.402;2023-03-05T05:28:27;22.83;;;15.57;;
13868;SDS011;7004;48.206;16.402;2023-03-05T05:30:55;26.40;;;15.57;;
13868;SDS011;7004;48.206;16.402;2023-03-05T05:33:22;22.67;;;14.97;;
13868;SDS011;7004;48.206;16.402;2023-03-05T05:35:48;23.40;;;15.83;;
13868;SDS011;7004;48.206;16.402;2023-03-05T05:38:15;26.40;;;16.33;;
13868;SDS011;7004;48.206;16.402;2023-03-05T05:40:43;22.07;;;14.90;;
13868;SDS011;7004;48.206;16.402;2023-03-05T05:43:11;24.67;;;15.70;;
13868;SDS011;7004;48.206;16.402;2023-03-05T05:45:38;21.57;;;15.20;;
13868;SDS011;7004;48.206;16.402;2023-03-05T05:48:05;25.27;;;16.00;;
13868;SDS011;7004;48.206;16.402;2023-03-05T05:50:31;23.20;;;15.80;;
13868;SDS011;7004;48.206;16.402;2023-03-05T05:52:58;24.20;;;15.53;;
13868;SDS011;7004;48.206;16.402;2023-03-05T05:55:24;24.17;;;16.00;;
13868;SDS011;7004;48.206;16.402;2023-03-05T05:57:51;21.30;;;15.57;;
13868;SDS011;7004;48.206;16.402;2023-03-05T06:00:17;24.30;;;16.30;;
13868;SDS011;7004;48.206;16.402;2023-03-05T06:02:44;22.90;;;15.17;;
13868;SDS011;7004;48.206;16.402;2023-03-05T06:05:12;22.00;;;15.13;;
13868;SDS011;7004;48.206;16.402;2023-03-05T06:07:39;25.07;;;15.43;;
13868;SDS011;7004;48.206;16.402;2023-03-05T06:10:05;24.37;;;15.63;;
13868;SDS011;7004;48.206;16.402;2023-03-05T06:12:34;22.60;;;15.07;;
13868;SDS011;7004;48.206;16.402;2023-03-05T06:15:00;23.43;;;15.80;;
13868;SDS011;7004;48.206;16.402;2023-03-05T06:17:27;23.13;;;14.73;;
13868;SDS011;7004;48.206;16.402;2023-03-05T06:19:54;23.23;;;14.63;;
13868;SDS011;7004;48.206;16.402;2023-03-05T06:22:20;23.50;;;15.67;;
13868;SDS011;7004;48.206;16.402;2023-03-05T06:24:47;23.37;;;16.07;;
13868;SDS011;7004;48.206;16.402;2023-03-05T06:27:13;21.20;;;13.60;;
13868;SDS011;7004;48.206;16.402;2023-03-05T06:29:39;23.50;;;14.83;;
13868;SDS011;7004;48.206;16.402;2023-03-05T06:32:05;24.67;;;14.97;;
13868;SDS011;7004;48.206;16.402;2023-03-05T06:34:32;21.13;;;14.13;;
13868;SDS011;7004;48.206;16.402;2023-03-05T06:36:58;22.80;;;15.20;;
13868;SDS011;7004;48.206;16.402;2023-03-05T06:39:25;22.37;;;13.73;;
13868;SDS011;7004;48.206;16.402;2023-03-05T06:41:51;21.20;;;13.43;;
13868;SDS011;7004;48.206;16.402;2023-03-05T06:44:17;19.77;;;14.00;;
13868;SDS011;7004;48.206;16.402;2023-03-05T06:46:44;19.33;;;13.60;;
13868;SDS011;7004;48.206;16.402;2023-03-05T06:49:13;26.27;;;15.03;;
13868;SDS011;7004;48.206;16.402;2023-03-05T06:51:39;21.00;;;14.20;;
13868;SDS011;7004;48.206;16.402;2023-03-05T06:54:08;23.23;;;15.77;;
13868;SDS011;7004;48.206;16.402;2023-03-05T06:56:40;21.90;;;14.33;;
13868;SDS011;7004;48.206;16.402;2023-03-05T06:59:12;24.23;;;14.50;;
13868;SDS011;7004;48.206;16.402;2023-03-05T07:01:39;23.40;;;15.13;;
13868;SDS011;7004;48.206;16.402;2023-03-05T07:04:06;22.70;;;14.43;;
13868;SDS011;7004;48.206;16.402;2023-03-05T07:06:33;23.47;;;15.03;;
13868;SDS011;7004;48.206;16.402;2023-03-05T07:09:03;22.27;;;14.67;;
13868;SDS011;7004;48.206;16.402;2023-03-05T07:11:32;22.17;;;15.17;;
13868;SDS011;7004;48.206;16.402;2023-03-05T07:13:59;23.13;;;15.43;;
13868;SDS011;7004;48.206;16.402;2023-03-05T07:16:27;28.13;;;18.40;;
13868;SDS011;7004;48.206;16.402;2023-03-05T07:18:57;25.33;;;16.93;;
13868;SDS011;7004;48.206;16.402;2023-03-05T07:21:27;24.00;;;16.87;;
13868;SDS011;7004;48.206;16.402;2023-03-05T07:23:57;27.60;;;18.43;;
13868;SDS011;7004;48.206;16.402;2023-03-05T07:26:25;29.47;;;18.67;;
13868;SDS011;7004;48.206;16.402;2023-03-05T07:28:53;28.77;;;17.77;;
13868;SDS011;7004;48.206;16.402;2023-03-05T07:31:22;27.07;;;18.17;;
13868;SDS011;7004;48.206;16.402;2023-03-05T07:33:55;35.20;;;23.50;;
13868;SDS011;7004;48.206;16.402;2023-03-05T07:36:23;29.43;;;18.80;;
13868;SDS011;7004;48.206;16.402;2023-03-05T07:38:50;41.37;;;28.97;;
13868;SDS011;7004;48.206;16.402;2023-03-05T07:41:17;27.93;;;18.47;;
13868;SDS011;7004;48.206;16.402;2023-03-05T07:43:46;28.03;;;18.33;;
13868;SDS011;7004;48.206;16.402;2023-03-05T07:46:15;24.90;;;17.30;;
13868;SDS011;7004;48.206;16.402;2023-03-05T07:48:43;26.13;;;17.97;;
13868;SDS011;7004;48.206;16.402;2023-03-05T07:51:11;24.27;;;16.27;;
13868;SDS011;7004;48.206;16.402;2023-03-05T07:53:41;26.60;;;16.60;;
13868;SDS011;7004;48.206;16.402;2023-03-05T07:56:09;25.37;;;17.27;;
13868;SDS011;7004;48.206;16.402;2023-03-05T07:58:35;28.33;;;16.97;;
13868;SDS011;7004;48.206;16.402;2023-03-05T08:01:02;24.67;;;15.63;;
13868;SDS011;7004;48.206;16.402;2023-03-05T08:03:29;25.37;;;16.83;;
13868;SDS011;7004;48.206;16.402;2023-03-05T08:05:55;23.67;;;16.50;;
13868;SDS011;7004;48.206;16.402;2023-03-05T08:08:22;23.33;;;15.97;;
13868;SDS011;7004;48.206;16.402;2023-03-05T08:10:48;25.67;;;16.37;;
13868;SDS011;7004;48.206;16.402;2023-03-05T08:13:15;25.53;;;15.97;;
13868;SDS011;7004;48.206;16.402;2023-03-05T08:15:41;25.33;;;16.47;;
13868;SDS011;7004;48.206;16.402;2023-03-05T08:18:07;25.03;;;17.37;;
13868;SDS011;7004;48.206;16.402;2023-03-05T08:20:34;25.37;;;16.90;;
13868;SDS011;7004;48.206;16.402;2023-03-05T08:23:01;23.97;;;16.20;;
13868;SDS011;7004;48.206;16.402;2023-03-05T08:25:28;26.23;;;16.57;;
13868;SDS011;7004;48.206;16.402;2023-03-05T08:27:54;23.93;;;16.30;;
13868;SDS011;7004;48.206;16.402;2023-03-05T08:30:22;24.80;;;16.53;;
13868;SDS011;7004;48.206;16.402;2023-03-05T08:32:51;24.90;;;15.77;;
13868;SDS011;7004;48.206;16.402;2023-03-05T08:35:18;24.27;;;16.43;;
13868;SDS011;7004;48.206;16.402;2023-03-05T08:37:45;27.07;;;16.70;;
13868;SDS011;7004;48.206;16.402;2023-03-05T08:40:12;25.63;;;16.83;;
13868;SDS011;7004;48.206;16.402;2023-03-05T08:42:42;23.87;;;16.77;;
13868;SDS011;7004;48.206;16.402;2023-03-05T08:45:09;25.87;;;16.83;;
13868;SDS011;7004;48.206;16.402;2023-03-05T08:47:36;25.83;;;17.17;;
13868;SDS011;7004;48.206;16.402;2023-03-05T08:50:02;25.20;;;16.57;;
13868;SDS011;7004;48.206;16.402;2023-03-05T08:52:29;25.10;;;17.20;;
13868;SDS011;7004;48.206;16.402;2023-03-05T08:54:55;25.93;;;18.00;;
13868;SDS011;7004;48.206;16.402;2023-03-05T08:57:22;26.80;;;17.93;;
13868;SDS011;7004;48.206;16.402;2023-03-05T08:59:48;25.63;;;17.37;;
13868;SDS011;7004;48.206;16.402;2023-03-05T09:02:15;25.67;;;17.27;;
13868;SDS011;7004;48.206;16.402;2023-03-05T09:04:41;26.53;;;17.33;;
13868;SDS011;7004;48.206;16.402;2023-03-05T09:07:08;27.67;;;18.43;;
13868;SDS011;7004;48.206;16.402;2023-03-05T09:09:35;28.30;;;17.53;;
13868;SDS011;7004;48.206;16.402;2023-03-05T09:12:01;24.60;;;17.33;;
13868;SDS011;7004;48.206;16.402;2023-03-05T09:14:28;23.40;;;17.30;;
13868;SDS011;7004;48.206;16.402;2023-03-05T09:16:55;27.73;;;18.30;;
13868;SDS011;7004;48.206;16.402;2023-03-05T09:19:22;26.57;;;18.10;;
13868;SDS011;7004;48.206;16.402;2023-03-05T09:21:49;27.77;;;17.77;;
13868;SDS011;7004;48.206;16.402;2023-03-05T09:24:15;28.67;;;18.67;;
13868;SDS011;7004;48.206;16.402;2023-03-05T09:26:42;26.83;;;17.30;;
13868;SDS011;7004;48.206;16.402;2023-03-05T09:29:08;28.50;;;19.87;;
13868;SDS011;7004;48.206;16.402;2023-03-05T09:31:36;24.53;;;17.10;;
13868;SDS011;7004;48.206;16.402;2023-03-05T09:34:03;25.07;;;17.70;;
13868;SDS011;7004;48.206;16.402;2023-03-05T09:36:30;25.27;;;18.03;;
13868;SDS011;7004;48.206;16.402;2023-03-05T09:38:57;27.87;;;18.20;;
13868;SDS011;7004;48.206;16.402;2023-03-05T09:44:29;27.37;;;17.57;;
13868;SDS011;7004;48.206;16.402;2023-03-05T09:47:28;27.67;;;18.50;;
13868;SDS011;7004;48.206;16.402;2023-03-05T09:56:01;26.73;;;17.87;;
13868;SDS011;7004;48.206;16.402;2023-03-05T09:59:19;23.00;;;15.93;;
13868;SDS011;7004;48.206;16.402;2023-03-05T10:02:43;24.30;;;16.17;;
13868;SDS011;7004;48.206;16.402;2023-03-05T10:08:00;25.90;;;17.53;;
13868;SDS011;7004;48.206;16.402;2023-03-05T10:11:15;25.70;;;16.23;;
13868;SDS011;7004;48.206;16.402;2023-03-05T10:13:26;25.33;;;16.87;;
13868;SDS011;7004;48.206;16.402;2023-03-05T10:16:05;24.13;;;16.37;;
13868;SDS011;7004;48.206;16.402;2023-03-05T10:19:08;26.70;;;16.37;;
13868;SDS011;7004;48.206;16.402;2023-03-05T10:22:13;24.30;;;16.70;;
13868;SDS011;7004;48.206;16.402;2023-03-05T10:27:56;24.07;;;16.37;;
13868;SDS011;7004;48.206;16.402;2023-03-05T10:36:21;25.57;;;17.20;;
13868;SDS011;7004;48.206;16.402;2023-03-05T10:42:40;22.87;;;15.13;;
13868;SDS011;7004;48.206;16.402;2023-03-05T10:45:27;26.60;;;15.77;;
13868;SDS011;7004;48.206;16.402;2023-03-05T10:51:00;23.23;;;16.00;;
13868;SDS011;7004;48.206;16.402;2023-03-05T10:53:55;23.40;;;15.73;;
13868;SDS011;7004;48.206;16.402;2023-03-05T10:56:27;21.10;;;15.07;;
13868;SDS011;7004;48.206;16.402;2023-03-05T10:58:56;24.70;;;15.37;;
13868;SDS011;7004;48.206;16.402;2023-03-05T11:01:24;21.37;;;15.37;;
13868;SDS011;7004;48.206;16.402;2023-03-05T11:04:02;24.83;;;16.30;;
13868;SDS011;7004;48.206;16.402;2023-03-05T11:06:50;20.20;;;14.77;;
13868;SDS011;7004;48.206;16.402;2023-03-05T11:17:30;21.10;;;14.30;;
13868;SDS011;7004;48.206;16.402;2023-03-05T11:20:28;22.63;;;15.73;;
13868;SDS011;7004;48.206;16.402;2023-03-05T11:23:11;22.57;;;15.77;;
13868;SDS011;7004;48.206;16.402;2023-03-05T11:29:12;22.47;;;15.43;;
13868;SDS011;7004;48.206;16.402;2023-03-05T11:31:43;22.27;;;15.07;;
13868;SDS011;7004;48.206;16.402;2023-03-05T11:36:43;25.40;;;15.20;;
13868;SDS011;7004;48.206;16.402;2023-03-05T11:39:13;22.37;;;14.17;;
13868;SDS011;7004;48.206;16.402;2023-03-05T11:41:52;22.40;;;14.83;;
13868;SDS011;7004;48.206;16.402;2023-03-05T11:44:45;22.30;;;14.53;;
13868;SDS011;7004;48.206;16.402;2023-03-05T11:47:44;24.53;;;15.47;;
13868;SDS011;7004;48.206;16.402;2023-03-05T11:50:24;25.20;;;16.40;;
13868;SDS011;7004;48.206;16.402;2023-03-05T11:53:01;35.97;;;20.30;;
13868;SDS011;7004;48.206;16.402;2023-03-05T11:55:49;24.73;;;17.07;;
13868;SDS011;7004;48.206;16.402;2023-03-05T11:58:49;27.33;;;17.70;;
13868;SDS011;7004;48.206;16.402;2023-03-05T12:01:39;27.73;;;17.63;;
13868;SDS011;7004;48.206;16.402;2023-03-05T12:04:17;26.40;;;17.03;;
13868;SDS011;7004;48.206;16.402;2023-03-05T12:06:46;27.07;;;17.80;;
13868;SDS011;7004;48.206;16.402;2023-03-05T12:12:11;25.50;;;15.80;;
13868;SDS011;7004;48.206;16.402;2023-03-05T12:21:34;23.50;;;16.20;;
13868;SDS011;7004;48.206;16.402;2023-03-05T12:29:37;29.47;;;17.87;;
13868;SDS011;7004;48.206;16.402;2023-03-05T12:33:12;26.37;;;16.10;;
13868;SDS011;7004;48.206;16.402;2023-03-05T12:35:25;25.93;;;16.87;;
13868;SDS011;7004;48.206;16.402;2023-03-05T12:38:04;28.03;;;16.50;;
13868;SDS011;7004;48.206;16.402;2023-03-05T12:46:31;24.23;;;15.50;;
13868;SDS011;7004;48.206;16.402;2023-03-05T12:49:26;22.63;;;14.97;;
13868;SDS011;7004;48.206;16.402;2023-03-05T12:51:54;24.73;;;15.17;;
13868;SDS011;7004;48.206;16.402;2023-03-05T12:57:01;12.47;;;9.27;;
13868;SDS011;7004;48.206;16.402;2023-03-05T12:59:46;13.57;;;8.50;;
13868;SDS011;7004;48.206;16.402;2023-03-05T13:02:33;13.17;;;8.40;;
13868;SDS011;7004;48.206;16.402;2023-03-05T13:05:51;16.70;;;8.93;;
13868;SDS011;7004;48.206;16.402;2023-03-05T13:08:19;13.23;;;8.23;;
13868;SDS011;7004;48.206;16.402;2023-03-05T13:10:58;15.10;;;7.47;;
13868;SDS011;7004;48.206;16.402;2023-03-05T13:13:32;11.17;;;7.37;;
13868;SDS011;7004;48.206;16.402;2023-03-05T13:16:15;10.23;;;6.80;;
13868;SDS011;7004;48.206;16.402;2023-03-05T13:18:55;10.33;;;6.37;;
13868;SDS011;7004;48.206;16.402;2023-03-05T13:21:26;12.10;;;6.50;;
13868;SDS011;7004;48.206;16.402;2023-03-05T13:23:58;10.43;;;6.40;;
13868;SDS011;7004;48.206;16.402;2023-03-05T13:26:39;9.37;;;5.80;;
13868;SDS011;7004;48.206;16.402;2023-03-05T13:29:10;12.87;;;6.27;;
13868;SDS011;7004;48.206;16.402;2023-03-05T13:31:54;8.60;;;5.80;;
13868;SDS011;7004;48.206;16.402;2023-03-05T13:34:43;6.90;;;5.73;;
13868;SDS011;7004;48.206;16.402;2023-03-05T13:37:23;9.40;;;6.20;;
13868;SDS011;7004;48.206;16.402;2023-03-05T13:43:07;8.30;;;6.03;;
13868;SDS011;7004;48.206;16.402;2023-03-05T13:45:39;9.87;;;5.80;;
13868;SDS011;7004;48.206;16.402;2023-03-05T13:48:14;9.50;;;5.67;;
13868;SDS011;7004;48.206;16.402;2023-03-05T13:50:52;9.53;;;5.57;;
13868;SDS011;7004;48.206;16.402;2023-03-05T13:53:29;8.27;;;5.27;;
13868;SDS011;7004;48.206;16.402;2023-03-05T13:56:00;5.50;;;4.40;;
13868;SDS011;7004;48.206;16.402;2023-03-05T13:58:43;8.00;;;4.63;;
13868;SDS011;7004;48.206;16.402;2023-03-05T14:03:54;9.10;;;5.30;;
13868;SDS011;7004;48.206;16.402;2023-03-05T14:06:53;7.07;;;4.70;;
13868;SDS011;7004;48.206;16.402;2023-03-05T14:09:26;9.37;;;5.20;;
13868;SDS011;7004;48.206;16.402;2023-03-05T14:12:30;6.10;;;4.10;;
13868;SDS011;7004;48.206;16.402;2023-03-05T14:18:33;10.30;;;4.70;;
13868;SDS011;7004;48.206;16.402;2023-03-05T14:31:45;7.20;;;4.43;;
13868;SDS011;7004;48.206;16.402;2023-03-05T14:34:19;6.40;;;4.70;;
13868;SDS011;7004;48.206;16.402;2023-03-05T14:36:51;9.87;;;4.63;;
13868;SDS011;7004;48.206;16.402;2023-03-05T14:39:24;7.10;;;4.57;;
13868;SDS011;7004;48.206;16.402;2023-03-05T14:42:11;10.33;;;4.87;;
13868;SDS011;7004;48.206;16.402;2023-03-05T14:45:00;8.17;;;5.80;;
13868;SDS011;7004;48.206;16.402;2023-03-05T14:47:38;7.37;;;4.60;;
13868;SDS011;7004;48.206;16.402;2023-03-05T14:50:05;9.10;;;4.80;;
13868;SDS011;7004;48.206;16.402;2023-03-05T14:52:39;6.43;;;4.43;;
13868;SDS011;7004;48.206;16.402;2023-03-05T14:55:06;8.50;;;5.00;;
13868;SDS011;7004;48.206;16.402;2023-03-05T14:57:44;7.10;;;4.43;;
13868;SDS011;7004;48.206;16.402;2023-03-05T15:00:17;6.20;;;4.00;;
13868;SDS011;7004;48.206;16.402;2023-03-05T15:02:46;8.27;;;4.73;;
13868;SDS011;7004;48.206;16.402;2023-03-05T15:05:14;7.50;;;4.80;;
13868;SDS011;7004;48.206;16.402;2023-03-05T15:07:42;9.77;;;5.17;;
13868;SDS011;7004;48.206;16.402;2023-03-05T15:10:14;9.27;;;5.50;;
13868;SDS011;7004;48.206;16.402;2023-03-05T15:12:43;9.03;;;5.33;;
13868;SDS011;7004;48.206;16.402;2023-03-05T15:15:14;7.73;;;4.37;;
13868;SDS011;7004;48.206;16.402;2023-03-05T15:17:44;6.70;;;4.30;;
13868;SDS011;7004;48.206;16.402;2023-03-05T15:20:25;5.80;;;4.50;;
13868;SDS011;7004;48.206;16.402;2023-03-05T15:22:54;6.87;;;4.47;;
13868;SDS011;7004;48.206;16.402;2023-03-05T15:25:22;5.73;;;4.20;;
13868;SDS011;7004;48.206;16.402;2023-03-05T15:27:53;5.30;;;3.80;;
13868;SDS011;7004;48.206;16.402;2023-03-05T15:30:25;8.77;;;4.30;;
13868;SDS011;7004;48.206;16.402;2023-03-05T15:32:56;6.80;;;4.30;;
13868;SDS011;7004;48.206;16.402;2023-03-05T15:35:38;9.33;;;4.77;;
13868;SDS011;7004;48.206;16.402;2023-03-05T15:38:06;7.40;;;4.40;;
13868;SDS011;7004;48.206;16.402;2023-03-05T15:40:35;6.90;;;4.60;;
13868;SDS011;7004;48.206;16.402;2023-03-05T15:43:05;9.80;;;4.70;;
13868;SDS011;7004;48.206;16.402;2023-03-05T15:45:32;5.50;;;3.97;;
13868;SDS011;7004;48.206;16.402;2023-03-05T15:48:00;9.93;;;4.50;;
13868;SDS011;7004;48.206;16.402;2023-03-05T15:50:28;7.93;;;4.63;;
13868;SDS011;7004;48.206;16.402;2023-03-05T15:52:55;6.60;;;4.33;;
13868;SDS011;7004;48.206;16.402;2023-03-05T15:55:22;5.70;;;4.00;;
13868;SDS011;7004;48.206;16.402;2023-03-05T15:57:50;7.97;;;4.43;;
13868;SDS011;7004;48.206;16.402;2023-03-05T16:00:20;8.87;;;4.73;;
13868;SDS011;7004;48.206;16.402;2023-03-05T16:02:53;6.70;;;4.30;;
13868;SDS011;7004;48.206;16.402;2023-03-05T16:05:21;9.30;;;4.47;;
13868;SDS011;7004;48.206;16.402;2023-03-05T16:07:50;9.20;;;4.30;;
13868;SDS011;7004;48.206;16.402;2023-03-05T16:10:19;6.97;;;4.63;;
13868;SDS011;7004;48.206;16.402;2023-03-05T16:12:53;8.03;;;5.07;;
13868;SDS011;7004;48.206;16.402;2023-03-05T16:15:32;7.63;;;4.70;;
13868;SDS011;7004;48.206;16.402;2023-03-05T16:18:01;7.50;;;4.70;;
13868;SDS011;7004;48.206;16.402;2023-03-05T16:20:32;7.80;;;5.00;;
13868;SDS011;7004;48.206;16.402;2023-03-05T16:23:01;8.17;;;4.77;;